Time;durP1;ratioP1;P1;durP2;ratioP2;P2;SDS_P1;SDS_P2;PMS_P1;PMS_P2;Temp;Humidity;BMP_temperature;BMP_pressure;BME280_temperature;BME280_humidity;BME280_pressure;Samples;Min_cycle;Max_cycle;Signal;HPM_P1;HPM_P2
2021/11/17 02:27:53;;;;;;;;;;;23.10;52.60;;;;;;1514734;77;1782;-56
2021/11/17 02:30:02;;;;;;;;;;;23.10;52.70;;;;;;1524991;76;1778;-52
2021/11/17 02:32:14;;;;;;;;;;;23.10;52.70;;;;;;1520458;77;1933;-55
2021/11/17 02:34:17;;;;;;;;;;;23.10;52.70;;;;;;1532134;76;1725;-55
2021/11/17 02:36:29;;;;;;;;;;;23.00;52.70;;;;;;1520526;77;1149;-53
2021/11/17 02:38:31;;;;;;;;;;;23.00;52.60;;;;;;1522238;77;1847;-56
2021/11/17 02:40:35;;;;;;;;;;;23.00;52.60;;;;;;1515578;76;1006;-54
2021/11/17 02:42:44;;;;;;;;;;;23.10;52.70;;;;;;1512585;77;922;-56
2021/11/17 02:44:48;;;;;;;;;;;23.10;52.70;;;;;;1518969;77;720;-55
2021/11/17 02:47:09;;;;;;;;;;;23.00;52.50;;;;;;1508295;76;1651;-55
2021/11/17 02:49:15;;;;;;;;;;;23.10;52.60;;;;;;1515967;77;694;-56
2021/11/17 02:51:22;;;;;;;;;;;23.00;52.40;;;;;;1525812;76;1926;-55
2021/11/17 02:53:37;;;;;;;;;;;23.10;52.60;;;;;;1525850;77;722;-53
2021/11/17 02:55:41;;;;;;;;;;;23.10;52.60;;;;;;1514429;77;1767;-56
2021/11/17 02:57:47;;;;;;;;;;;23.10;52.60;;;;;;1513595;77;1797;-55
2021/11/17 03:00:07;;;;;;;;;;;23.00;52.50;;;;;;1517852;77;1170;-53
2021/11/17 03:02:13;;;;;;;;;;;23.00;52.50;;;;;;1531748;77;698;-54
2021/11/17 03:04:20;;;;;;;;;;;23.00;52.40;;;;;;1520889;77;821;-55
2021/11/17 03:06:26;;;;;;;;;;;23.00;52.50;;;;;;1510269;77;1120;-55
2021/11/17 03:08:46;;;;;;;;;;;23.10;52.50;;;;;;1515078;77;1669;-56
2021/11/17 03:10:49;;;;;;;;;;;23.00;52.40;;;;;;1516518;77;1918;-56
2021/11/17 03:13:05;;;;;;;;;;;23.00;52.40;;;;;;1518947;77;724;-58
2021/11/17 03:15:14;;;;;;;;;;;23.00;52.50;;;;;;1526169;77;1735;-56
2021/11/17 03:17:18;;;;;;;;;;;23.00;52.50;;;;;;1533060;76;1697;-56
2021/11/17 03:19:21;;;;;;;;;;;23.00;52.40;;;;;;1530157;76;1885;-55
2021/11/17 03:21:25;;;;;;;;;;;23.00;52.40;;;;;;1529787;77;671;-58
2021/11/17 03:23:38;;;;;;;;;;;23.00;52.40;;;;;;1526175;76;1778;-55
2021/11/17 03:25:44;;;;;;;;;;;23.00;52.40;;;;;;1528476;77;1926;-54
2021/11/17 03:27:50;;;;;;;;;;;23.00;52.50;;;;;;1525810;76;1809;-56
2021/11/17 03:30:10;;;;;;;;;;;23.00;52.40;;;;;;1528049;76;1824;-55
2021/11/17 03:32:14;;;;;;;;;;;23.10;52.60;;;;;;1526438;77;1927;-55
2021/11/17 03:34:23;;;;;;;;;;;23.00;52.40;;;;;;1531512;76;1740;-55
2021/11/17 03:36:32;;;;;;;;;;;23.10;52.60;;;;;;1513478;77;1195;-54
2021/11/17 03:38:36;;;;;;;;;;;23.10;52.60;;;;;;1521221;77;1541;-56
2021/11/17 03:40:45;;;;;;;;;;;23.10;52.60;;;;;;1527899;77;787;-55
2021/11/17 03:43:06;;;;;;;;;;;23.20;52.60;;;;;;1508579;77;1781;-54
2021/11/17 03:45:24;;;;;;;;;;;23.10;52.60;;;;;;1511458;77;700;-55
2021/11/17 03:47:31;;;;;;;;;;;23.20;52.50;;;;;;1515310;77;687;-56
2021/11/17 03:49:35;;;;;;;;;;;23.20;52.30;;;;;;1518419;77;1688;-55
2021/11/17 03:51:39;;;;;;;;;;;23.30;52.30;;;;;;1544870;73;224906;-70
2021/11/17 03:53:42;;;;;;;;;;;23.40;52.10;;;;;;1550365;76;744;-70
2021/11/17 03:55:55;;;;;;;;;;;23.50;52.00;;;;;;1548198;76;673;-69
2021/11/17 03:58:01;;;;;;;;;;;23.50;51.90;;;;;;1560142;74;1258;-70
2021/11/17 04:00:14;;;;;;;;;;;23.50;51.90;;;;;;1549242;76;1901;-70
2021/11/17 04:02:26;;;;;;;;;;;23.50;52.10;;;;;;1521668;76;698;-70
2021/11/17 04:04:33;;;;;;;;;;;23.50;52.40;;;;;;1537861;76;701;-71
2021/11/17 04:06:36;;;;;;;;;;;23.30;52.40;;;;;;1536597;76;1864;-72
2021/11/17 04:08:43;;;;;;;;;;;23.30;52.60;;;;;;1530333;76;1103;-71
2021/11/17 04:10:46;;;;;;;;;;;23.30;52.70;;;;;;1542691;76;1947;-71
2021/11/17 04:12:53;;;;;;;;;;;23.20;52.60;;;;;;1533467;76;718;-71
2021/11/17 04:15:08;;;;;;;;;;;23.30;52.80;;;;;;1534780;76;762;-71
2021/11/17 04:17:15;;;;;;;;;;;23.30;52.80;;;;;;1536711;76;1844;-71
2021/11/17 04:19:18;;;;;;;;;;;23.30;52.80;;;;;;1522246;76;2003;-72
2021/11/17 04:21:22;;;;;;;;;;;23.30;52.80;;;;;;1536493;76;737;-72
2021/11/17 04:23:28;;;;;;;;;;;23.20;53.00;;;;;;1539094;76;771;-71
2021/11/17 04:25:31;;;;;;;;;;;23.30;53.30;;;;;;1528565;76;1720;-72
2021/11/17 04:27:35;;;;;;;;;;;23.30;53.20;;;;;;1513550;77;1146;-71
2021/11/17 04:29:51;;;;;;;;;;;23.20;53.10;;;;;;1510621;77;773;-71
2021/11/17 04:32:06;;;;;;;;;;;23.20;53.00;;;;;;1510614;77;1935;-72
2021/11/17 04:34:13;;;;;;;;;;;23.30;53.00;;;;;;1485975;78;692;-71
2021/11/17 04:36:33;;;;;;;;;;;23.30;53.00;;;;;;1518915;77;1018;-71
2021/11/17 04:38:42;;;;;;;;;;;23.30;52.90;;;;;;1506743;77;1120;-72
2021/11/17 04:40:46;;;;;;;;;;;23.30;52.80;;;;;;1515283;77;778;-72
2021/11/17 04:42:49;;;;;;;;;;;23.30;52.80;;;;;;1513771;77;690;-72
2021/11/17 04:44:59;;;;;;;;;;;23.30;52.80;;;;;;1524258;77;808;-72
2021/11/17 04:47:05;;;;;;;;;;;23.40;52.70;;;;;;1515627;77;1139;-71
2021/11/17 04:49:12;;;;;;;;;;;23.40;52.70;;;;;;1514762;77;666;-71
2021/11/17 04:51:18;;;;;;;;;;;23.40;52.70;;;;;;1526556;77;1929;-72
2021/11/17 04:53:22;;;;;;;;;;;23.40;52.60;;;;;;1532069;76;2197;-71
2021/11/17 04:55:25;;;;;;;;;;;23.40;52.70;;;;;;1530688;76;1827;-71
2021/11/17 04:57:32;;;;;;;;;;;23.30;52.60;;;;;;1510710;76;1149;-71
2021/11/17 04:59:51;;;;;;;;;;;23.40;52.60;;;;;;1561164;75;1915;-71
2021/11/17 05:01:54;;;;;;;;;;;23.40;52.50;;;;;;1558013;75;2127;-72
2021/11/17 05:03:58;;;;;;;;;;;23.40;52.40;;;;;;1563765;75;1886;-71
2021/11/17 05:06:18;;;;;;;;;;;23.40;52.40;;;;;;1559334;75;723;-72
2021/11/17 05:08:24;;;;;;;;;;;23.40;52.40;;;;;;1549033;75;1125;-72
2021/11/17 05:10:36;;;;;;;;;;;23.50;52.50;;;;;;1565457;75;780;-72
2021/11/17 05:12:55;;;;;;;;;;;23.50;52.50;;;;;;1552400;75;1968;-72
2021/11/17 05:15:14;;;;;;;;;;;23.50;52.50;;;;;;1563721;75;715;-72
2021/11/17 05:17:18;;;;;;;;;;;23.50;52.50;;;;;;1544963;75;1736;-73
2021/11/17 05:19:21;;;;;;;;;;;23.50;52.60;;;;;;1558420;75;563;-72
2021/11/17 05:21:34;;;;;;;;;;;23.50;52.60;;;;;;1532351;75;1654;-72
2021/11/17 05:23:49;;;;;;;;;;;23.50;52.50;;;;;;1571299;75;1814;-72
2021/11/17 05:25:56;;;;;;;;;;;23.50;52.50;;;;;;1562044;75;809;-71
2021/11/17 05:28:08;;;;;;;;;;;23.50;52.50;;;;;;1556577;75;1896;-71
2021/11/17 05:30:28;;;;;;;;;;;23.50;52.50;;;;;;1581925;75;1757;-73
2021/11/17 05:32:32;;;;;;;;;;;23.50;52.40;;;;;;1568214;75;1932;-73
2021/11/17 05:34:38;;;;;;;;;;;23.50;52.40;;;;;;1542218;75;777;-72
2021/11/17 05:36:45;;;;;;;;;;;23.50;52.40;;;;;;1565071;75;1833;-72
2021/11/17 05:38:48;;;;;;;;;;;23.50;52.40;;;;;;1562591;75;699;-72
2021/11/17 05:41:07;;;;;;;;;;;23.50;52.40;;;;;;1566999;75;1900;-72
2021/11/17 05:43:19;;;;;;;;;;;23.50;52.40;;;;;;1559203;75;742;-72
2021/11/17 05:45:23;;;;;;;;;;;23.50;52.40;;;;;;1549785;75;1878;-72
2021/11/17 05:47:26;;;;;;;;;;;23.50;52.60;;;;;;1486129;75;1108;-72
2021/11/17 05:49:36;;;;;;;;;;;23.60;52.50;;;;;;1548660;75;704;-72
2021/11/17 05:51:42;;;;;;;;;;;23.60;52.40;;;;;;1563596;75;1944;-71
2021/11/17 05:54:02;;;;;;;;;;;23.50;52.50;;;;;;1564537;75;696;-71
2021/11/17 05:56:08;;;;;;;;;;;23.60;52.40;;;;;;1579224;75;761;-71
2021/11/17 05:58:24;;;;;;;;;;;23.60;52.30;;;;;;1560393;75;1117;-71
2021/11/17 06:00:36;;;;;;;;;;;23.50;52.30;;;;;;1492095;75;1187;-71
2021/11/17 06:02:49;;;;;;;;;;;23.60;52.20;;;;;;1561028;75;1904;-72
2021/11/17 06:04:50;;;;;;;;;;;23.60;52.10;;;;;;1563921;75;1903;-71
2021/11/17 06:06:51;;;;;;;;;;;23.60;52.20;;;;;;1570179;74;1134;-71
2021/11/17 06:08:56;;;;;;;;;;;23.60;52.20;;;;;;1560490;75;703;-71
2021/11/17 06:10:59;;;;;;;;;;;23.60;52.10;;;;;;1558009;75;852;-73
2021/11/17 06:13:01;;;;;;;;;;;23.60;52.30;;;;;;1552708;75;1924;-73
2021/11/17 06:15:04;;;;;;;;;;;23.60;52.30;;;;;;1571186;75;721;-72
2021/11/17 06:17:07;;;;;;;;;;;23.60;52.50;;;;;;1560705;75;1137;-72
2021/11/17 06:19:09;;;;;;;;;;;23.60;52.40;;;;;;1564223;75;779;-72
2021/11/17 06:21:12;;;;;;;;;;;23.60;52.50;;;;;;1542871;76;706;-73
2021/11/17 06:23:21;;;;;;;;;;;23.70;52.40;;;;;;1562140;75;732;-72
2021/11/17 06:25:23;;;;;;;;;;;23.60;52.30;;;;;;1553236;75;762;-73
2021/11/17 06:27:26;;;;;;;;;;;23.60;52.30;;;;;;1563687;74;1131;-72
2021/11/17 06:29:35;;;;;;;;;;;23.60;52.40;;;;;;1562982;75;1527;-72
2021/11/17 06:31:37;;;;;;;;;;;23.70;52.40;;;;;;1562689;75;1928;-72
2021/11/17 06:33:39;;;;;;;;;;;23.70;52.50;;;;;;1569674;75;723;-72
2021/11/17 06:35:41;;;;;;;;;;;23.70;52.40;;;;;;1565694;75;828;-72
2021/11/17 06:37:43;;;;;;;;;;;23.70;52.30;;;;;;1563941;74;1095;-72
2021/11/17 06:39:46;;;;;;;;;;;23.60;52.10;;;;;;1562772;75;729;-72
2021/11/17 06:41:48;;;;;;;;;;;23.60;52.10;;;;;;1555196;75;747;-72
2021/11/17 06:43:50;;;;;;;;;;;23.70;52.20;;;;;;1563774;75;847;-72
2021/11/17 06:45:53;;;;;;;;;;;23.70;52.20;;;;;;1559282;75;742;-72
2021/11/17 06:47:55;;;;;;;;;;;23.70;52.20;;;;;;1556386;75;1779;-72
2021/11/17 06:49:57;;;;;;;;;;;23.70;52.10;;;;;;1553360;75;659;-72
2021/11/17 06:51:59;;;;;;;;;;;23.70;52.10;;;;;;1554001;75;1911;-72
2021/11/17 06:54:01;;;;;;;;;;;23.70;52.20;;;;;;1561850;75;750;-71
2021/11/17 06:56:03;;;;;;;;;;;23.70;52.20;;;;;;1583437;75;673;-72
2021/11/17 06:58:05;;;;;;;;;;;23.80;52.20;;;;;;1576095;74;1150;-72
2021/11/17 07:00:08;;;;;;;;;;;23.70;52.20;;;;;;1559363;75;776;-72
2021/11/17 07:02:10;;;;;;;;;;;23.70;52.20;;;;;;1562152;75;1278;-71
2021/11/17 07:04:12;;;;;;;;;;;23.70;52.20;;;;;;1535185;75;764;-73
2021/11/17 07:06:14;;;;;;;;;;;23.70;52.50;;;;;;1537574;75;719;-72
2021/11/17 07:08:16;;;;;;;;;;;23.70;52.60;;;;;;1538149;75;1132;-71
2021/11/17 07:10:18;;;;;;;;;;;23.80;52.60;;;;;;1542734;75;741;-73
2021/11/17 07:12:20;;;;;;;;;;;23.80;52.50;;;;;;1538406;75;1931;-73
2021/11/17 07:14:22;;;;;;;;;;;23.90;51.90;;;;;;1542761;75;724;-73
2021/11/17 07:16:24;;;;;;;;;;;24.00;51.50;;;;;;1539876;75;767;-73
2021/11/17 07:18:26;;;;;;;;;;;24.00;51.20;;;;;;1561029;75;1093;-73
2021/11/17 07:20:28;;;;;;;;;;;23.90;51.00;;;;;;1576567;75;785;-73
2021/11/17 07:22:30;;;;;;;;;;;23.90;50.80;;;;;;1551412;75;803;-73
2021/11/17 07:24:32;;;;;;;;;;;23.90;50.70;;;;;;1540970;75;782;-73
2021/11/17 07:26:34;;;;;;;;;;;23.90;50.60;;;;;;1557414;75;738;-73
2021/11/17 07:28:35;;;;;;;;;;;23.90;50.50;;;;;;1559026;75;1076;-74
2021/11/17 07:30:38;;;;;;;;;;;23.90;50.40;;;;;;1557287;75;656;-73
2021/11/17 07:32:40;;;;;;;;;;;23.90;50.50;;;;;;1558677;75;1956;-74
2021/11/17 07:34:42;;;;;;;;;;;23.90;50.40;;;;;;1557804;75;768;-73
2021/11/17 07:36:44;;;;;;;;;;;23.90;50.40;;;;;;1561817;75;1128;-74
2021/11/17 07:38:46;;;;;;;;;;;23.90;50.40;;;;;;1566408;75;748;-74
2021/11/17 07:40:48;;;;;;;;;;;23.90;50.30;;;;;;1558768;75;756;-74
2021/11/17 07:42:50;;;;;;;;;;;23.80;50.30;;;;;;1559569;75;943;-75
2021/11/17 07:44:52;;;;;;;;;;;23.80;50.20;;;;;;1562691;75;832;-75
2021/11/17 07:46:54;;;;;;;;;;;23.80;50.20;;;;;;1557870;75;1117;-74
2021/11/17 07:48:57;;;;;;;;;;;23.80;50.20;;;;;;1567626;75;776;-72
2021/11/17 07:51:00;;;;;;;;;;;23.90;50.20;;;;;;1549594;75;729;-71
2021/11/17 07:53:02;;;;;;;;;;;23.80;50.10;;;;;;1538898;75;1944;-72
2021/11/17 07:55:04;;;;;;;;;;;23.80;50.00;;;;;;1541672;75;727;-72
2021/11/17 07:57:08;;;;;;;;;;;23.80;50.00;;;;;;1546391;75;1160;-72
2021/11/17 07:59:11;;;;;;;;;;;23.80;50.00;;;;;;1534123;75;712;-72
2021/11/17 08:01:12;;;;;;;;;;;23.90;50.10;;;;;;1539037;75;676;-72
2021/11/17 08:03:15;;;;;;;;;;;23.80;50.00;;;;;;1556541;75;695;-71
2021/11/17 08:05:17;;;;;;;;;;;23.90;49.90;;;;;;1550785;75;743;-72
2021/11/17 08:07:19;;;;;;;;;;;24.00;49.50;;;;;;1541389;74;1081;-72
2021/11/17 08:09:21;;;;;;;;;;;23.90;48.90;;;;;;1539424;75;930;-72
2021/11/17 08:11:23;;;;;;;;;;;23.90;48.90;;;;;;1542468;75;756;-72
2021/11/17 08:13:25;;;;;;;;;;;23.90;49.00;;;;;;1548045;75;1917;-71
2021/11/17 08:15:27;;;;;;;;;;;23.90;49.20;;;;;;1545532;75;725;-72
2021/11/17 08:17:29;;;;;;;;;;;23.90;49.20;;;;;;1548906;75;1089;-72
2021/11/17 08:19:31;;;;;;;;;;;23.90;49.30;;;;;;1553576;75;721;-71
2021/11/17 08:21:33;;;;;;;;;;;23.90;49.40;;;;;;1541044;75;729;-72
2021/11/17 08:23:35;;;;;;;;;;;23.90;49.50;;;;;;1563177;75;829;-72
2021/11/17 08:25:37;;;;;;;;;;;23.90;49.50;;;;;;1559850;75;727;-72
2021/11/17 08:27:39;;;;;;;;;;;24.00;49.40;;;;;;1559601;75;1137;-72
2021/11/17 08:29:41;;;;;;;;;;;24.00;49.30;;;;;;1550647;75;752;-72
2021/11/17 08:31:43;;;;;;;;;;;24.00;49.00;;;;;;1550565;75;744;-72
2021/11/17 08:33:44;;;;;;;;;;;24.20;48.80;;;;;;1558007;75;1946;-72
2021/11/17 08:35:47;;;;;;;;;;;24.30;48.80;;;;;;1563404;75;733;-73
2021/11/17 08:37:50;;;;;;;;;;;24.30;48.80;;;;;;1554228;75;1193;-72
2021/11/17 08:39:55;;;;;;;;;;;24.30;48.70;;;;;;1559837;75;762;-72
2021/11/17 08:41:56;;;;;;;;;;;24.30;48.80;;;;;;1540445;75;1659;-72
2021/11/17 08:43:57;;;;;;;;;;;24.30;48.80;;;;;;1569877;75;727;-71
2021/11/17 08:45:59;;;;;;;;;;;24.30;49.00;;;;;;1567465;75;729;-72
2021/11/17 08:48:01;;;;;;;;;;;24.30;49.00;;;;;;1562778;75;1129;-72
2021/11/17 08:50:04;;;;;;;;;;;24.30;49.20;;;;;;1556092;75;800;-72
2021/11/17 08:52:06;;;;;;;;;;;24.30;49.00;;;;;;1551815;75;742;-73
2021/11/17 08:54:08;;;;;;;;;;;24.40;48.90;;;;;;1554251;75;1942;-73
2021/11/17 08:56:10;;;;;;;;;;;24.40;48.90;;;;;;1549839;75;709;-73
2021/11/17 08:58:16;;;;;;;;;;;24.20;48.90;;;;;;1574795;74;1150;-73
2021/11/17 09:00:19;;;;;;;;;;;24.20;49.00;;;;;;1558518;75;706;-72
2021/11/17 09:02:21;;;;;;;;;;;24.20;49.20;;;;;;1565051;75;764;-73
2021/11/17 09:04:23;;;;;;;;;;;24.10;49.20;;;;;;1564098;75;730;-73
2021/11/17 09:06:24;;;;;;;;;;;24.00;49.20;;;;;;1549929;75;789;-72
2021/11/17 09:08:28;;;;;;;;;;;24.00;49.20;;;;;;1560119;74;1092;-72
2021/11/17 09:10:31;;;;;;;;;;;24.00;49.30;;;;;;1551020;75;678;-73
2021/11/17 09:12:33;;;;;;;;;;;24.00;49.30;;;;;;1556234;75;1930;-76
2021/11/17 09:14:36;;;;;;;;;;;24.00;49.30;;;;;;1561436;75;631;-73
2021/11/17 09:16:39;;;;;;;;;;;23.90;49.30;;;;;;1551339;75;688;-72
2021/11/17 09:18:42;;;;;;;;;;;24.00;49.40;;;;;;1558253;75;897;-73
2021/11/17 09:20:43;;;;;;;;;;;23.90;49.40;;;;;;1550970;75;767;-73
2021/11/17 09:22:45;;;;;;;;;;;23.90;49.40;;;;;;1572078;75;703;-72
2021/11/17 09:24:47;;;;;;;;;;;23.90;49.40;;;;;;1543656;75;742;-73
2021/11/17 09:26:50;;;;;;;;;;;23.90;49.50;;;;;;1560641;74;1154;-73
2021/11/17 09:28:52;;;;;;;;;;;24.00;49.50;;;;;;1562436;75;714;-72
2021/11/17 09:30:54;;;;;;;;;;;23.90;49.40;;;;;;1555239;75;684;-72
2021/11/17 09:32:58;;;;;;;;;;;24.00;49.40;;;;;;1559066;75;1938;-72
2021/11/17 09:35:01;;;;;;;;;;;23.90;49.50;;;;;;1543295;75;728;-72
2021/11/17 09:37:03;;;;;;;;;;;23.90;49.50;;;;;;1555751;75;1191;-73
2021/11/17 09:39:06;;;;;;;;;;;23.90;49.50;;;;;;1549805;75;956;-72
2021/11/17 09:41:10;;;;;;;;;;;23.90;49.50;;;;;;1557669;75;750;-73
2021/11/17 09:43:13;;;;;;;;;;;23.90;49.50;;;;;;1551219;75;723;-72
2021/11/17 09:45:15;;;;;;;;;;;23.90;49.50;;;;;;1549128;75;667;-74
2021/11/17 09:47:18;;;;;;;;;;;23.90;49.50;;;;;;1543802;75;1408;-71
2021/11/17 09:49:30;;;;;;;;;;;23.90;49.50;;;;;;1548031;75;681;-72
2021/11/17 09:51:33;;;;;;;;;;;23.90;49.70;;;;;;1570703;75;1618;-71
2021/11/17 09:53:52;;;;;;;;;;;24.00;49.90;;;;;;1549459;75;1938;-73
2021/11/17 09:55:56;;;;;;;;;;;24.00;49.80;;;;;;1557194;75;708;-72
2021/11/17 09:57:59;;;;;;;;;;;24.00;49.40;;;;;;1563034;75;1142;-73
2021/11/17 10:00:12;;;;;;;;;;;23.90;48.90;;;;;;1564549;75;1434;-73
2021/11/17 10:02:18;;;;;;;;;;;23.90;48.40;;;;;;1562194;75;1092;-72
2021/11/17 10:04:25;;;;;;;;;;;23.90;48.00;;;;;;1559147;72;219764;-60
2021/11/17 10:13:21;;;;;;;;;;;23.70;46.80;;;;;;1539073;75;1931;-59
2021/11/17 10:15:25;;;;;;;;;;;23.70;47.10;;;;;;1551327;75;1735;-60
2021/11/17 10:17:38;;;;;;;;;;;23.60;47.20;;;;;;1548604;75;1930;-60
2021/11/17 10:19:40;;;;;;;;;;;23.70;47.50;;;;;;1554414;75;802;-61
2021/11/17 10:21:42;;;;;;;;;;;23.70;47.30;;;;;;1564357;75;782;-60
2021/11/17 10:23:45;;;;;;;;;;;23.60;47.30;;;;;;1553055;75;759;-61
2021/11/17 10:25:48;;;;;;;;;;;23.60;47.20;;;;;;1550404;74;1159;-62
2021/11/17 10:27:52;;;;;;;;;;;23.70;47.30;;;;;;1551836;75;705;-61
2021/11/17 10:29:58;;;;;;;;;;;23.70;47.30;;;;;;1556919;75;1889;-59
2021/11/17 10:32:02;;;;;;;;;;;23.70;47.40;;;;;;1553764;75;854;-60
2021/11/17 10:34:17;;;;;;;;;;;23.70;47.50;;;;;;1546530;75;1939;-61
2021/11/17 10:36:37;;;;;;;;;;;23.70;47.60;;;;;;1540003;75;1179;-61
2021/11/17 10:38:40;;;;;;;;;;;23.70;47.60;;;;;;1550858;75;762;-61
2021/11/17 10:40:53;;;;;;;;;;;23.70;47.70;;;;;;1545690;75;773;-60
2021/11/17 10:42:59;;;;;;;;;;;23.70;47.70;;;;;;1560073;75;759;-60
2021/11/17 10:45:03;;;;;;;;;;;23.70;47.70;;;;;;1549428;75;1018;-62
2021/11/17 10:47:06;;;;;;;;;;;23.70;47.80;;;;;;1556932;75;1934;-61
2021/11/17 10:49:13;;;;;;;;;;;23.70;47.80;;;;;;1559463;75;1039;-60
2021/11/17 10:51:22;;;;;;;;;;;23.60;47.80;;;;;;1547361;75;1252;-62
2021/11/17 10:53:28;;;;;;;;;;;23.70;47.90;;;;;;1540451;75;1935;-60
2021/11/17 10:55:32;;;;;;;;;;;23.70;48.00;;;;;;1559755;74;1800;-59
2021/11/17 10:57:35;;;;;;;;;;;23.70;48.00;;;;;;1547609;75;1617;-60
2021/11/17 10:59:37;;;;;;;;;;;23.70;48.10;;;;;;1545545;75;709;-61
2021/11/17 11:01:41;;;;;;;;;;;23.70;48.10;;;;;;1547209;75;802;-61
2021/11/17 11:03:44;;;;;;;;;;;23.70;48.20;;;;;;1545975;75;797;-60
2021/11/17 11:05:50;;;;;;;;;;;23.70;48.10;;;;;;1544804;75;1810;-60
2021/11/17 11:08:10;;;;;;;;;;;23.70;48.10;;;;;;1551599;75;762;-60
2021/11/17 11:10:13;;;;;;;;;;;23.70;48.10;;;;;;1551212;75;697;-59
2021/11/17 11:12:17;;;;;;;;;;;23.70;48.10;;;;;;1533483;75;2076;-59
2021/11/17 11:14:20;;;;;;;;;;;23.70;48.20;;;;;;1542126;75;1944;-60
2021/11/17 11:16:24;;;;;;;;;;;23.70;48.20;;;;;;1547443;75;1140;-59
2021/11/17 11:18:37;;;;;;;;;;;23.70;48.20;;;;;;1561797;75;817;-61
2021/11/17 11:20:46;;;;;;;;;;;23.70;48.20;;;;;;1556756;75;1618;-59
2021/11/17 11:22:50;;;;;;;;;;;23.70;48.20;;;;;;1543660;75;757;-60
2021/11/17 11:24:52;;;;;;;;;;;23.70;48.20;;;;;;1532010;75;1048;-61
2021/11/17 11:27:02;;;;;;;;;;;23.70;48.20;;;;;;1565672;74;1118;-61
2021/11/17 11:29:22;;;;;;;;;;;23.70;48.20;;;;;;1549657;75;704;-59
2021/11/17 11:31:28;;;;;;;;;;;23.70;48.30;;;;;;1546531;75;767;-61
2021/11/17 11:33:37;;;;;;;;;;;23.70;48.20;;;;;;1547073;75;1939;-60
2021/11/17 11:35:39;;;;;;;;;;;23.70;48.20;;;;;;1546851;74;1134;-60
2021/11/17 11:37:42;;;;;;;;;;;23.70;48.20;;;;;;1560190;75;794;-59
2021/11/17 11:39:45;;;;;;;;;;;23.70;48.30;;;;;;1561366;75;758;-59
2021/11/17 11:41:48;;;;;;;;;;;23.70;48.30;;;;;;1561558;75;1120;-62
2021/11/17 11:43:52;;;;;;;;;;;23.70;48.20;;;;;;1546327;75;1952;-59
2021/11/17 11:45:55;;;;;;;;;;;23.70;48.30;;;;;;1560611;74;1150;-59
2021/11/17 11:48:06;;;;;;;;;;;23.70;48.30;;;;;;1554878;75;659;-60
2021/11/17 11:50:28;;;;;;;;;;;23.70;48.30;;;;;;1554804;75;769;-59
2021/11/17 11:52:31;;;;;;;;;;;23.70;48.30;;;;;;1551361;75;699;-60
2021/11/17 11:54:35;;;;;;;;;;;23.70;48.30;;;;;;1544988;75;1938;-60
2021/11/17 11:56:43;;;;;;;;;;;23.80;48.30;;;;;;1551141;75;1131;-59
2021/11/17 11:58:44;;;;;;;;;;;23.80;48.30;;;;;;1564552;75;1779;-60
2021/11/17 12:00:48;;;;;;;;;;;23.70;48.30;;;;;;1553019;75;635;-60
2021/11/17 12:02:57;;;;;;;;;;;23.70;48.30;;;;;;1546923;75;1823;-57
2021/11/17 12:05:00;;;;;;;;;;;23.70;48.30;;;;;;1567504;75;1103;-58
2021/11/17 12:07:06;;;;;;;;;;;23.70;48.30;;;;;;1551639;75;1158;-58
2021/11/17 12:09:10;;;;;;;;;;;23.80;48.30;;;;;;1545963;75;1635;-59
2021/11/17 12:11:14;;;;;;;;;;;23.70;48.20;;;;;;1555993;75;837;-60
2021/11/17 12:13:20;;;;;;;;;;;23.80;48.20;;;;;;1552942;75;962;-60
2021/11/17 12:15:24;;;;;;;;;;;23.70;48.20;;;;;;1555459;74;1095;-58
2021/11/17 12:17:29;;;;;;;;;;;23.70;48.20;;;;;;1560883;75;720;-60
2021/11/17 12:19:32;;;;;;;;;;;23.70;48.20;;;;;;1564412;75;882;-58
2021/11/17 12:21:41;;;;;;;;;;;23.70;48.20;;;;;;1543816;75;822;-60
2021/11/17 12:23:44;;;;;;;;;;;23.70;48.20;;;;;;1556649;75;706;-61
2021/11/17 12:26:07;;;;;;;;;;;23.70;48.30;;;;;;1551381;74;1138;-60
2021/11/17 12:28:13;;;;;;;;;;;23.80;48.30;;;;;;1553112;75;1649;-60
2021/11/17 12:30:20;;;;;;;;;;;23.70;48.30;;;;;;1546017;75;765;-62
2021/11/17 12:32:29;;;;;;;;;;;23.70;48.20;;;;;;1575143;75;1000;-60
2021/11/17 12:34:35;;;;;;;;;;;23.80;48.30;;;;;;1561728;75;1928;-61
2021/11/17 12:36:38;;;;;;;;;;;23.70;48.30;;;;;;1540438;75;1840;-61
2021/11/17 12:38:40;;;;;;;;;;;23.70;48.30;;;;;;1556336;75;1861;-59
2021/11/17 12:40:48;;;;;;;;;;;23.70;48.20;;;;;;1543240;75;745;-60
2021/11/17 12:42:54;;;;;;;;;;;23.70;48.20;;;;;;1546545;75;1618;-62
2021/11/17 12:44:56;;;;;;;;;;;23.70;48.20;;;;;;1554944;75;819;-60
2021/11/17 12:47:00;;;;;;;;;;;23.70;48.30;;;;;;1565703;74;1170;-62
2021/11/17 12:49:06;;;;;;;;;;;23.70;48.20;;;;;;1545008;75;717;-60
2021/11/17 12:51:28;;;;;;;;;;;23.70;48.30;;;;;;1547945;75;710;-58
2021/11/17 12:53:31;;;;;;;;;;;23.70;48.30;;;;;;1547716;75;714;-61
2021/11/17 12:55:37;;;;;;;;;;;23.70;48.30;;;;;;1545553;75;1133;-59
2021/11/17 12:57:53;;;;;;;;;;;23.70;48.30;;;;;;1554158;75;1905;-60
2021/11/17 12:59:56;;;;;;;;;;;23.70;48.40;;;;;;1548839;75;2100;-60
2021/11/17 13:02:03;;;;;;;;;;;23.70;48.30;;;;;;1559119;75;724;-62
2021/11/17 13:04:15;;;;;;;;;;;23.70;48.40;;;;;;1543378;75;725;-61
2021/11/17 13:06:19;;;;;;;;;;;23.80;48.40;;;;;;1559072;74;1138;-59
2021/11/17 13:08:21;;;;;;;;;;;23.70;48.40;;;;;;1555888;75;769;-61
2021/11/17 13:10:24;;;;;;;;;;;23.70;48.30;;;;;;1542533;75;1109;-58
2021/11/17 13:12:29;;;;;;;;;;;23.70;48.30;;;;;;1551931;75;767;-61
2021/11/17 13:14:35;;;;;;;;;;;23.80;48.20;;;;;;1563209;75;1950;-60
2021/11/17 13:16:37;;;;;;;;;;;23.80;48.20;;;;;;1554135;75;1140;-60
2021/11/17 13:18:44;;;;;;;;;;;23.80;48.20;;;;;;1556184;75;720;-61
2021/11/17 13:20:46;;;;;;;;;;;23.80;48.10;;;;;;1547025;75;771;-59
2021/11/17 13:22:52;;;;;;;;;;;23.80;48.10;;;;;;1551526;75;785;-62
2021/11/17 13:24:56;;;;;;;;;;;23.80;48.10;;;;;;1545449;75;1831;-59
2021/11/17 13:27:08;;;;;;;;;;;23.80;48.10;;;;;;1553050;75;1621;-60
2021/11/17 13:29:17;;;;;;;;;;;23.80;48.10;;;;;;1548840;75;696;-60
2021/11/17 13:31:26;;;;;;;;;;;23.80;48.00;;;;;;1548509;75;685;-61
2021/11/17 13:33:36;;;;;;;;;;;23.80;48.10;;;;;;1546383;75;722;-62
2021/11/17 13:35:37;;;;;;;;;;;23.70;48.10;;;;;;1546585;75;1907;-60
2021/11/17 13:37:39;;;;;;;;;;;23.80;48.10;;;;;;1550617;75;804;-60
2021/11/17 13:39:41;;;;;;;;;;;23.80;48.10;;;;;;1548746;75;774;-60
2021/11/17 13:41:44;;;;;;;;;;;23.80;48.00;;;;;;1547867;75;688;-61
2021/11/17 13:43:46;;;;;;;;;;;23.80;48.00;;;;;;1557115;75;738;-60
2021/11/17 13:45:49;;;;;;;;;;;23.80;48.00;;;;;;1532164;75;1179;-59
2021/11/17 13:47:51;;;;;;;;;;;23.70;48.00;;;;;;1548927;75;729;-58
2021/11/17 13:49:54;;;;;;;;;;;23.80;48.00;;;;;;1559940;75;720;-60
2021/11/17 13:51:56;;;;;;;;;;;23.70;48.00;;;;;;1545902;75;781;-59
2021/11/17 13:53:58;;;;;;;;;;;23.80;48.00;;;;;;1555090;75;1943;-61
2021/11/17 13:56:01;;;;;;;;;;;23.80;48.00;;;;;;1549446;75;1070;-61
2021/11/17 13:58:04;;;;;;;;;;;23.80;48.00;;;;;;1549680;75;1623;-58
2021/11/17 14:00:07;;;;;;;;;;;23.80;48.00;;;;;;1538301;76;804;-62
2021/11/17 14:02:09;;;;;;;;;;;23.70;48.00;;;;;;1536822;75;699;-61
2021/11/17 14:04:11;;;;;;;;;;;23.70;47.90;;;;;;1550325;75;674;-58
2021/11/17 14:06:14;;;;;;;;;;;23.70;47.90;;;;;;1551538;75;1120;-59
2021/11/17 14:08:16;;;;;;;;;;;23.70;47.90;;;;;;1539487;75;772;-60
2021/11/17 14:10:18;;;;;;;;;;;23.70;47.90;;;;;;1556208;75;745;-60
2021/11/17 14:12:21;;;;;;;;;;;23.80;47.90;;;;;;1526837;75;828;-60
2021/11/17 14:14:23;;;;;;;;;;;23.70;47.90;;;;;;1553392;75;1919;-61
2021/11/17 14:16:25;;;;;;;;;;;23.70;47.90;;;;;;1551414;75;1139;-62
2021/11/17 14:18:28;;;;;;;;;;;23.70;47.80;;;;;;1552547;75;721;-58
2021/11/17 14:20:30;;;;;;;;;;;23.80;47.80;;;;;;1549870;75;799;-60
2021/11/17 14:22:33;;;;;;;;;;;23.70;47.80;;;;;;1551584;75;747;-58
2021/11/17 14:24:35;;;;;;;;;;;23.70;47.80;;;;;;1549377;75;776;-61
2021/11/17 14:26:38;;;;;;;;;;;23.70;47.80;;;;;;1551548;74;1129;-60
2021/11/17 14:28:40;;;;;;;;;;;23.80;47.80;;;;;;1545350;75;756;-60
2021/11/17 14:30:50;;;;;;;;;;;23.70;47.80;;;;;;1550760;75;781;-59
2021/11/17 14:32:52;;;;;;;;;;;23.70;47.80;;;;;;1550377;75;1764;-60
2021/11/17 14:34:54;;;;;;;;;;;23.80;47.80;;;;;;1546430;75;1919;-60
2021/11/17 14:37:03;;;;;;;;;;;23.70;47.80;;;;;;1552021;74;1126;-61
2021/11/17 14:39:03;;;;;;;;;;;23.70;47.80;;;;;;1546734;75;985;-59
2021/11/17 14:41:05;;;;;;;;;;;23.70;47.80;;;;;;1547221;75;819;-60
2021/11/17 14:43:07;;;;;;;;;;;23.70;47.80;;;;;;1547760;75;686;-59
2021/11/17 14:45:10;;;;;;;;;;;23.70;47.80;;;;;;1548567;75;663;-58
2021/11/17 14:47:13;;;;;;;;;;;23.70;47.90;;;;;;1551658;75;1160;-60
2021/11/17 14:49:17;;;;;;;;;;;23.70;47.80;;;;;;1545556;75;748;-61
2021/11/17 14:51:19;;;;;;;;;;;23.70;46.30;;;;;;1548523;75;746;-60
2021/11/17 14:53:21;;;;;;;;;;;23.60;43.90;;;;;;1558759;75;735;-60
2021/11/17 14:55:24;;;;;;;;;;;23.60;44.00;;;;;;1549184;74;1915;-60
2021/11/17 14:57:26;;;;;;;;;;;23.60;44.60;;;;;;1552204;75;690;-60
2021/11/17 14:59:28;;;;;;;;;;;23.60;44.70;;;;;;1550925;75;744;-61